Time;durP1;ratioP1;P1;durP2;ratioP2;P2;SDS_P1;SDS_P2;PMS_P1;PMS_P2;Temp;Humidity;BMP_temperature;BMP_pressure;BME280_temperature;BME280_humidity;BME280_pressure;Samples;Min_cycle;Max_cycle;Signal;HPM_P1;HPM_P2
2022/05/17 00:00:57;;;;;;;;;;;21.40;52.30;;;;;;473603;250;1226;-42
2022/05/17 00:02:58;;;;;;;;;;;21.40;52.40;;;;;;473559;250;1478;-41
2022/05/17 00:04:59;;;;;;;;;;;21.40;52.50;;;;;;473740;250;1267;-42
2022/05/17 00:07:00;;;;;;;;;;;21.40;52.40;;;;;;473488;250;1257;-41
2022/05/17 00:09:02;;;;;;;;;;;21.40;52.40;;;;;;473562;250;1336;-42
2022/05/17 00:11:03;;;;;;;;;;;21.40;52.50;;;;;;473560;250;1219;-41
2022/05/17 00:13:04;;;;;;;;;;;21.40;52.50;;;;;;473556;250;1259;-42
2022/05/17 00:15:06;;;;;;;;;;;21.40;52.50;;;;;;473504;250;2188;-41
2022/05/17 00:17:08;;;;;;;;;;;21.40;52.40;;;;;;473780;250;1205;-41
2022/05/17 00:19:09;;;;;;;;;;;21.40;52.40;;;;;;473638;250;2373;-39
2022/05/17 00:21:10;;;;;;;;;;;21.40;52.40;;;;;;473652;250;1209;-38
2022/05/17 00:23:12;;;;;;;;;;;21.40;52.30;;;;;;473954;250;1269;-39
2022/05/17 00:25:13;;;;;;;;;;;21.40;52.50;;;;;;473966;250;1228;-41
2022/05/17 00:27:14;;;;;;;;;;;21.40;52.40;;;;;;473617;250;1231;-42
2022/05/17 00:29:16;;;;;;;;;;;21.50;52.30;;;;;;474002;250;1205;-41
2022/05/17 00:31:17;;;;;;;;;;;21.40;52.30;;;;;;473734;250;1202;-42
2022/05/17 00:33:19;;;;;;;;;;;21.40;52.40;;;;;;473760;250;1290;-41
2022/05/17 00:35:20;;;;;;;;;;;21.40;52.50;;;;;;473684;250;2126;-41
2022/05/17 00:37:21;;;;;;;;;;;21.40;52.50;;;;;;473708;250;1246;-41
2022/05/17 00:39:23;;;;;;;;;;;21.40;52.50;;;;;;473804;250;1199;-41
2022/05/17 00:41:24;;;;;;;;;;;21.40;52.40;;;;;;473510;250;1247;-41
2022/05/17 00:43:25;;;;;;;;;;;21.40;52.30;;;;;;473609;250;1134;-41
2022/05/17 00:45:27;;;;;;;;;;;21.40;52.30;;;;;;473579;250;1093;-41
2022/05/17 00:47:28;;;;;;;;;;;21.40;52.40;;;;;;473664;250;1221;-41
2022/05/17 00:49:29;;;;;;;;;;;21.40;52.50;;;;;;473578;250;1195;-41
2022/05/17 00:51:30;;;;;;;;;;;21.40;52.40;;;;;;473433;250;1640;-41
2022/05/17 00:53:33;;;;;;;;;;;21.40;52.60;;;;;;473528;250;1241;-42
2022/05/17 00:55:33;;;;;;;;;;;21.30;52.50;;;;;;473417;250;2382;-41
2022/05/17 00:57:34;;;;;;;;;;;21.40;52.60;;;;;;473572;250;1238;-41
2022/05/17 00:59:36;;;;;;;;;;;21.40;52.60;;;;;;473909;250;1212;-41
2022/05/17 01:01:37;;;;;;;;;;;21.40;52.60;;;;;;473729;250;1214;-41
2022/05/17 01:03:38;;;;;;;;;;;21.40;52.60;;;;;;473480;250;1207;-42
2022/05/17 01:05:40;;;;;;;;;;;21.40;52.60;;;;;;473402;250;1189;-41
2022/05/17 01:07:41;;;;;;;;;;;21.30;52.50;;;;;;473760;250;1186;-41
2022/05/17 01:09:42;;;;;;;;;;;21.40;52.60;;;;;;474007;250;1353;-41
2022/05/17 01:11:44;;;;;;;;;;;21.40;52.50;;;;;;473990;250;1327;-41
2022/05/17 01:16:04;;;;;;;;;;;21.40;52.40;;;;;;473545;252;1294;-41
2022/05/17 01:18:06;;;;;;;;;;;21.40;52.50;;;;;;473654;250;1243;-41
2022/05/17 01:20:07;;;;;;;;;;;21.40;52.50;;;;;;473673;250;1278;-42
2022/05/17 01:22:08;;;;;;;;;;;21.40;52.40;;;;;;474003;250;1410;-41
2022/05/17 01:24:09;;;;;;;;;;;21.40;52.50;;;;;;473994;250;1227;-42
2022/05/17 01:26:11;;;;;;;;;;;21.40;52.40;;;;;;473671;250;1326;-41
2022/05/17 01:28:12;;;;;;;;;;;21.40;52.60;;;;;;473538;250;1155;-41
2022/05/17 01:30:14;;;;;;;;;;;21.40;52.50;;;;;;473630;250;1249;-41
2022/05/17 01:32:15;;;;;;;;;;;21.40;52.50;;;;;;473610;250;1268;-41
2022/05/17 01:34:16;;;;;;;;;;;21.40;52.50;;;;;;473660;250;2151;-42
2022/05/17 01:36:21;;;;;;;;;;;21.40;52.50;;;;;;473716;250;1330;-41
2022/05/17 01:38:19;;;;;;;;;;;21.40;52.40;;;;;;473623;251;2433;-41
2022/05/17 01:40:20;;;;;;;;;;;21.40;52.50;;;;;;473481;250;1280;-41
2022/05/17 01:42:21;;;;;;;;;;;21.40;52.50;;;;;;473521;250;1259;-41
2022/05/17 01:44:23;;;;;;;;;;;21.40;52.50;;;;;;473636;250;1281;-41
2022/05/17 01:46:25;;;;;;;;;;;21.30;52.40;;;;;;473522;250;1213;-41
2022/05/17 01:48:26;;;;;;;;;;;21.40;52.40;;;;;;473902;250;1209;-42
2022/05/17 01:50:27;;;;;;;;;;;21.40;52.50;;;;;;473619;250;1273;-41
2022/05/17 01:52:29;;;;;;;;;;;21.40;52.40;;;;;;473591;250;1208;-41
2022/05/17 01:54:30;;;;;;;;;;;21.40;52.50;;;;;;473719;250;2139;-41
2022/05/17 01:56:33;;;;;;;;;;;21.40;52.30;;;;;;473427;250;1214;-41
2022/05/17 01:58:32;;;;;;;;;;;21.40;52.40;;;;;;473441;252;1918;-41
2022/05/17 02:00:35;;;;;;;;;;;21.40;52.50;;;;;;473527;250;1248;-41
2022/05/17 02:02:36;;;;;;;;;;;21.30;52.40;;;;;;473868;251;2361;-41
2022/05/17 02:04:36;;;;;;;;;;;21.40;52.50;;;;;;473448;251;2004;-41
2022/05/17 02:06:38;;;;;;;;;;;21.30;52.40;;;;;;473340;250;1296;-42
2022/05/17 02:08:39;;;;;;;;;;;21.30;52.40;;;;;;473713;250;1384;-42
2022/05/17 02:10:40;;;;;;;;;;;21.30;52.30;;;;;;473661;250;1542;-42
2022/05/17 02:12:42;;;;;;;;;;;21.40;52.40;;;;;;473724;250;1220;-41
2022/05/17 02:14:43;;;;;;;;;;;21.40;52.30;;;;;;473547;250;2201;-41
2022/05/17 02:16:44;;;;;;;;;;;21.40;52.30;;;;;;473756;250;1505;-41
2022/05/17 02:18:46;;;;;;;;;;;21.40;52.30;;;;;;473506;250;1238;-42
2022/05/17 02:20:47;;;;;;;;;;;21.40;52.30;;;;;;473475;250;1370;-41
2022/05/17 02:22:48;;;;;;;;;;;21.40;52.30;;;;;;473697;250;1295;-41
2022/05/17 02:24:50;;;;;;;;;;;21.40;52.40;;;;;;473855;250;1265;-41
2022/05/17 02:26:51;;;;;;;;;;;21.40;52.40;;;;;;473516;250;2284;-42
2022/05/17 02:28:52;;;;;;;;;;;21.40;52.50;;;;;;473578;250;1335;-41
2022/05/17 02:30:54;;;;;;;;;;;21.40;52.40;;;;;;473915;250;1265;-41
2022/05/17 02:32:55;;;;;;;;;;;21.40;52.50;;;;;;473811;250;1300;-41
2022/05/17 02:34:56;;;;;;;;;;;21.30;52.40;;;;;;473930;250;2209;-41
2022/05/17 02:36:57;;;;;;;;;;;21.40;52.40;;;;;;473450;250;1323;-42
2022/05/17 02:38:59;;;;;;;;;;;21.30;52.50;;;;;;473490;250;1250;-41
2022/05/17 02:41:00;;;;;;;;;;;21.40;52.40;;;;;;473660;250;1535;-42
2022/05/17 02:43:01;;;;;;;;;;;21.40;52.40;;;;;;473458;250;1226;-41
2022/05/17 02:45:03;;;;;;;;;;;21.40;52.30;;;;;;473464;250;1229;-41
2022/05/17 02:47:04;;;;;;;;;;;21.40;52.40;;;;;;473659;250;1891;-41
2022/05/17 02:49:07;;;;;;;;;;;21.40;52.40;;;;;;473449;250;1217;-41
2022/05/17 02:51:07;;;;;;;;;;;21.40;52.50;;;;;;473424;250;2558;-41
2022/05/17 02:53:09;;;;;;;;;;;21.40;52.40;;;;;;473519;250;1280;-41
2022/05/17 02:55:10;;;;;;;;;;;21.40;52.40;;;;;;473519;250;2147;-41
2022/05/17 02:57:12;;;;;;;;;;;21.40;52.50;;;;;;473432;250;1348;-41
2022/05/17 02:59:17;;;;;;;;;;;21.40;52.50;;;;;;473611;250;1226;-41
2022/05/17 03:01:14;;;;;;;;;;;21.40;52.40;;;;;;473349;251;2153;-41
2022/05/17 03:03:15;;;;;;;;;;;21.40;52.40;;;;;;473576;250;1185;-41
2022/05/17 03:05:17;;;;;;;;;;;21.40;52.40;;;;;;473480;250;1389;-41
2022/05/17 03:07:18;;;;;;;;;;;21.40;52.40;;;;;;473443;250;1613;-41
2022/05/17 03:09:19;;;;;;;;;;;21.40;52.40;;;;;;473672;250;1213;-41
2022/05/17 03:11:20;;;;;;;;;;;21.40;52.40;;;;;;473947;250;1313;-41
2022/05/17 03:13:22;;;;;;;;;;;21.40;52.30;;;;;;473501;250;1284;-41
2022/05/17 03:15:23;;;;;;;;;;;21.40;52.30;;;;;;473499;250;2208;-41
2022/05/17 03:17:24;;;;;;;;;;;21.40;52.30;;;;;;473495;250;1220;-41
2022/05/17 03:19:26;;;;;;;;;;;21.40;52.30;;;;;;473466;250;1185;-41
2022/05/17 03:21:27;;;;;;;;;;;21.40;52.30;;;;;;473551;250;1265;-41
2022/05/17 03:23:28;;;;;;;;;;;21.50;52.30;;;;;;473483;250;1283;-41
2022/05/17 03:25:30;;;;;;;;;;;21.40;52.30;;;;;;473474;250;1373;-41
2022/05/17 03:27:31;;;;;;;;;;;21.40;52.30;;;;;;473723;250;1266;-41
2022/05/17 03:29:32;;;;;;;;;;;21.40;52.30;;;;;;473823;250;1210;-41
2022/05/17 03:31:34;;;;;;;;;;;21.40;52.30;;;;;;473780;250;1731;-41
2022/05/17 03:33:35;;;;;;;;;;;21.40;52.40;;;;;;473733;250;1261;-41
2022/05/17 03:35:37;;;;;;;;;;;21.30;52.40;;;;;;473836;250;2123;-42
2022/05/17 03:37:38;;;;;;;;;;;21.40;52.40;;;;;;473450;250;2199;-42
2022/05/17 03:39:39;;;;;;;;;;;21.40;52.40;;;;;;473650;250;1242;-41
2022/05/17 03:41:40;;;;;;;;;;;21.40;52.40;;;;;;473539;250;1211;-41
2022/05/17 03:43:42;;;;;;;;;;;21.40;52.40;;;;;;473797;250;1191;-41
2022/05/17 03:45:43;;;;;;;;;;;21.40;52.40;;;;;;473614;250;1286;-41
2022/05/17 03:47:44;;;;;;;;;;;21.40;52.50;;;;;;473655;250;1286;-41
2022/05/17 03:49:46;;;;;;;;;;;21.40;52.40;;;;;;473580;250;1199;-42
2022/05/17 03:51:47;;;;;;;;;;;21.40;52.40;;;;;;473494;250;1228;-41
2022/05/17 03:53:49;;;;;;;;;;;21.40;52.50;;;;;;473893;250;1338;-41
2022/05/17 03:55:50;;;;;;;;;;;21.40;52.50;;;;;;473757;250;2209;-41
2022/05/17 03:57:51;;;;;;;;;;;21.40;52.50;;;;;;473868;250;1203;-41
2022/05/17 03:59:53;;;;;;;;;;;21.40;52.40;;;;;;473461;250;1289;-41
2022/05/17 04:01:54;;;;;;;;;;;21.40;52.40;;;;;;473580;250;1216;-42
2022/05/17 04:03:55;;;;;;;;;;;21.40;52.40;;;;;;473644;250;1254;-41
2022/05/17 04:05:57;;;;;;;;;;;21.40;52.40;;;;;;473463;252;1419;-41
2022/05/17 04:07:58;;;;;;;;;;;21.40;52.50;;;;;;473440;250;1273;-41
2022/05/17 04:09:59;;;;;;;;;;;21.40;52.50;;;;;;473497;250;1297;-41
2022/05/17 04:12:01;;;;;;;;;;;21.40;52.40;;;;;;473633;250;2331;-41
2022/05/17 04:14:02;;;;;;;;;;;21.40;52.30;;;;;;473509;250;1222;-41
2022/05/17 04:16:04;;;;;;;;;;;21.40;52.30;;;;;;473490;250;2201;-41
2022/05/17 04:18:05;;;;;;;;;;;21.40;52.30;;;;;;473594;250;1216;-41
2022/05/17 04:20:06;;;;;;;;;;;21.40;52.30;;;;;;473560;250;1184;-41
2022/05/17 04:22:08;;;;;;;;;;;21.40;52.30;;;;;;473580;250;1623;-41
2022/05/17 04:24:09;;;;;;;;;;;21.40;52.30;;;;;;473764;250;1339;-42
2022/05/17 04:26:13;;;;;;;;;;;21.40;52.20;;;;;;473396;250;1221;-41
2022/05/17 04:28:12;;;;;;;;;;;21.40;52.30;;;;;;473439;251;2554;-41
2022/05/17 04:30:13;;;;;;;;;;;21.40;52.40;;;;;;473317;250;1290;-41
2022/05/17 04:32:15;;;;;;;;;;;21.40;52.30;;;;;;473265;250;1237;-41
2022/05/17 04:34:16;;;;;;;;;;;21.40;52.30;;;;;;473428;250;1347;-41
2022/05/17 04:36:18;;;;;;;;;;;21.40;52.40;;;;;;473309;250;2192;-41
2022/05/17 04:38:19;;;;;;;;;;;21.40;52.20;;;;;;473469;250;1308;-41
2022/05/17 04:40:20;;;;;;;;;;;21.40;52.30;;;;;;473317;250;1197;-42
2022/05/17 04:42:21;;;;;;;;;;;21.40;52.30;;;;;;473351;250;1230;-41
2022/05/17 04:44:23;;;;;;;;;;;21.40;52.40;;;;;;473300;250;1159;-42
2022/05/17 04:46:24;;;;;;;;;;;21.40;52.40;;;;;;473284;250;1270;-41
2022/05/17 04:48:25;;;;;;;;;;;21.40;52.40;;;;;;473634;250;1291;-41
2022/05/17 04:50:27;;;;;;;;;;;21.40;52.30;;;;;;473591;250;1220;-41
2022/05/17 04:52:28;;;;;;;;;;;21.40;52.30;;;;;;473331;250;1189;-41
2022/05/17 04:54:29;;;;;;;;;;;21.40;52.40;;;;;;473360;250;1148;-41
2022/05/17 04:56:31;;;;;;;;;;;21.40;52.30;;;;;;473201;250;2142;-42
2022/05/17 04:58:33;;;;;;;;;;;21.40;52.50;;;;;;473320;250;2479;-41
2022/05/17 05:00:34;;;;;;;;;;;21.40;52.50;;;;;;473211;250;2240;-41
2022/05/17 05:02:35;;;;;;;;;;;21.40;52.50;;;;;;473396;250;1283;-41
2022/05/17 05:04:38;;;;;;;;;;;21.40;52.40;;;;;;473299;250;1253;-41
2022/05/17 05:06:38;;;;;;;;;;;21.40;52.40;;;;;;473211;251;2126;-41
2022/05/17 05:08:39;;;;;;;;;;;21.40;52.50;;;;;;473233;250;1234;-41
2022/05/17 05:10:42;;;;;;;;;;;21.30;52.40;;;;;;473293;250;1243;-42
2022/05/17 05:12:42;;;;;;;;;;;21.40;52.40;;;;;;473298;250;2161;-41
2022/05/17 05:14:43;;;;;;;;;;;21.40;52.40;;;;;;473235;250;1271;-41
2022/05/17 05:16:45;;;;;;;;;;;21.40;52.40;;;;;;473214;250;2157;-41
2022/05/17 05:18:46;;;;;;;;;;;21.40;52.40;;;;;;473335;250;1193;-41
2022/05/17 05:20:47;;;;;;;;;;;21.40;52.40;;;;;;473293;250;1162;-41
2022/05/17 05:22:48;;;;;;;;;;;21.40;52.40;;;;;;473171;250;1256;-41
2022/05/17 05:24:50;;;;;;;;;;;21.40;52.30;;;;;;473214;250;1284;-41
2022/05/17 05:26:52;;;;;;;;;;;21.40;52.30;;;;;;473225;250;1243;-41
2022/05/17 05:28:53;;;;;;;;;;;21.40;52.30;;;;;;473290;250;1141;-41
2022/05/17 05:30:54;;;;;;;;;;;21.40;52.30;;;;;;473299;250;1262;-41
2022/05/17 05:32:56;;;;;;;;;;;21.40;52.30;;;;;;473229;250;1362;-41
2022/05/17 05:34:57;;;;;;;;;;;21.40;52.30;;;;;;473144;250;1236;-41
2022/05/17 05:36:58;;;;;;;;;;;21.40;52.40;;;;;;473049;250;2205;-41
2022/05/17 05:39:00;;;;;;;;;;;21.40;52.30;;;;;;473042;250;1201;-41
2022/05/17 05:41:01;;;;;;;;;;;21.40;52.30;;;;;;473055;250;1369;-41
2022/05/17 05:43:02;;;;;;;;;;;21.40;52.30;;;;;;473113;250;1197;-41
2022/05/17 05:45:04;;;;;;;;;;;21.30;52.40;;;;;;473172;250;1287;-42
2022/05/17 05:47:05;;;;;;;;;;;21.40;52.40;;;;;;473116;250;1249;-41
2022/05/17 05:49:07;;;;;;;;;;;21.40;52.50;;;;;;473214;250;1253;-41
2022/05/17 05:51:08;;;;;;;;;;;21.40;52.40;;;;;;473165;250;1491;-41
2022/05/17 05:53:09;;;;;;;;;;;21.40;52.30;;;;;;473144;250;1210;-42
2022/05/17 05:55:11;;;;;;;;;;;21.50;52.30;;;;;;473020;250;1233;-41
2022/05/17 05:57:12;;;;;;;;;;;21.40;52.20;;;;;;472883;250;2198;-41
2022/05/17 05:59:13;;;;;;;;;;;21.40;52.30;;;;;;473120;250;1223;-41
2022/05/17 06:01:15;;;;;;;;;;;21.40;52.30;;;;;;473007;250;1264;-41
2022/05/17 06:03:16;;;;;;;;;;;21.40;52.40;;;;;;473142;250;1175;-41
2022/05/17 06:05:18;;;;;;;;;;;21.40;52.30;;;;;;473141;250;1298;-41
2022/05/17 06:07:19;;;;;;;;;;;21.40;52.40;;;;;;473145;250;1283;-41
2022/05/17 06:09:20;;;;;;;;;;;21.40;52.40;;;;;;473131;250;1179;-41
2022/05/17 06:11:22;;;;;;;;;;;21.40;52.40;;;;;;472978;250;1312;-42
2022/05/17 06:13:23;;;;;;;;;;;21.40;52.30;;;;;;473124;250;1143;-42
2022/05/17 06:15:24;;;;;;;;;;;21.40;52.30;;;;;;473068;250;1277;-41
2022/05/17 06:17:27;;;;;;;;;;;21.40;52.30;;;;;;472875;250;2210;-42
2022/05/17 06:19:27;;;;;;;;;;;21.50;52.30;;;;;;472974;251;2301;-41
2022/05/17 06:21:28;;;;;;;;;;;21.40;52.20;;;;;;472825;250;2088;-42
2022/05/17 06:23:29;;;;;;;;;;;21.40;52.30;;;;;;472906;250;1389;-41
2022/05/17 06:25:31;;;;;;;;;;;21.50;52.20;;;;;;472879;250;1554;-41
2022/05/17 06:27:32;;;;;;;;;;;21.40;52.20;;;;;;473132;250;1321;-41
2022/05/17 06:29:34;;;;;;;;;;;21.40;52.50;;;;;;472624;250;1214;-41
2022/05/17 06:31:35;;;;;;;;;;;21.40;52.40;;;;;;472846;250;1337;-42
2022/05/17 06:33:37;;;;;;;;;;;21.40;52.30;;;;;;472863;250;1374;-41
2022/05/17 06:35:37;;;;;;;;;;;21.40;52.50;;;;;;472718;250;1194;-41
2022/05/17 06:37:39;;;;;;;;;;;21.40;52.40;;;;;;472849;250;2198;-42
2022/05/17 06:39:41;;;;;;;;;;;21.40;52.40;;;;;;473017;250;1361;-41
2022/05/17 06:41:43;;;;;;;;;;;21.50;52.50;;;;;;472676;250;2825;-39
2022/05/17 06:43:43;;;;;;;;;;;21.50;52.50;;;;;;472663;251;1378;-39
2022/05/17 06:45:44;;;;;;;;;;;21.40;52.40;;;;;;472779;250;1161;-39
2022/05/17 06:47:46;;;;;;;;;;;21.40;52.50;;;;;;472977;250;1384;-39
2022/05/17 06:49:47;;;;;;;;;;;21.40;52.40;;;;;;472723;250;1214;-39
2022/05/17 06:51:48;;;;;;;;;;;21.40;52.50;;;;;;472704;250;1314;-39
2022/05/17 06:53:50;;;;;;;;;;;21.50;52.50;;;;;;473274;250;1105;-39
2022/05/17 06:55:51;;;;;;;;;;;21.40;52.60;;;;;;472813;250;1089;-39
2022/05/17 06:57:52;;;;;;;;;;;21.30;52.60;;;;;;472863;250;2186;-39
2022/05/17 06:59:54;;;;;;;;;;;21.40;52.70;;;;;;472645;250;1241;-41
2022/05/17 07:01:55;;;;;;;;;;;21.40;52.80;;;;;;472299;251;2130;-42
2022/05/17 07:03:56;;;;;;;;;;;21.40;52.80;;;;;;473293;250;1109;-41
2022/05/17 07:05:58;;;;;;;;;;;21.40;52.70;;;;;;473292;250;1114;-42
2022/05/17 07:07:59;;;;;;;;;;;21.40;52.80;;;;;;472877;250;1101;-41
2022/05/17 07:14:39;;;;;;;;;;;21.40;52.70;;;;;;473035;250;1004;-42
2022/05/17 07:16:40;;;;;;;;;;;21.50;52.70;;;;;;472640;250;2206;-41
2022/05/17 07:18:42;;;;;;;;;;;21.50;52.60;;;;;;472664;250;1352;-41
2022/05/17 07:20:43;;;;;;;;;;;21.40;52.60;;;;;;472739;250;2759;-42
2022/05/17 07:22:44;;;;;;;;;;;21.50;52.50;;;;;;472816;250;1323;-42
2022/05/17 07:24:46;;;;;;;;;;;21.50;52.50;;;;;;472950;250;1212;-41
2022/05/17 07:26:47;;;;;;;;;;;21.50;52.50;;;;;;472575;250;1403;-41
2022/05/17 07:28:48;;;;;;;;;;;21.50;52.50;;;;;;473037;250;1146;-41
2022/05/17 07:30:50;;;;;;;;;;;21.60;52.40;;;;;;473248;250;990;-41
2022/05/17 07:32:51;;;;;;;;;;;21.60;52.40;;;;;;473028;250;1210;-41
2022/05/17 07:34:52;;;;;;;;;;;21.60;52.30;;;;;;472677;250;1059;-41
2022/05/17 07:36:54;;;;;;;;;;;21.60;52.30;;;;;;473134;250;2197;-41
2022/05/17 07:38:57;;;;;;;;;;;21.60;52.40;;;;;;473161;250;1411;-41
2022/05/17 07:40:56;;;;;;;;;;;21.60;52.50;;;;;;472962;251;2277;-41
2022/05/17 07:42:58;;;;;;;;;;;21.60;52.40;;;;;;472698;250;1055;-41
2022/05/17 07:44:59;;;;;;;;;;;21.60;52.40;;;;;;473189;250;1126;-41
2022/05/17 07:47:00;;;;;;;;;;;21.60;52.40;;;;;;472985;250;1202;-41
2022/05/17 07:49:02;;;;;;;;;;;21.60;52.40;;;;;;472738;250;1119;-41
2022/05/17 07:51:05;;;;;;;;;;;21.60;52.40;;;;;;473159;250;1099;-41
2022/05/17 07:53:06;;;;;;;;;;;21.60;52.40;;;;;;472697;252;2224;-39
2022/05/17 07:55:06;;;;;;;;;;;21.60;52.50;;;;;;473293;250;2042;-41
2022/05/17 07:57:07;;;;;;;;;;;21.50;52.50;;;;;;472666;250;2181;-41
2022/05/17 07:59:08;;;;;;;;;;;21.60;52.50;;;;;;472797;250;1056;-41
2022/05/17 08:01:10;;;;;;;;;;;21.70;52.50;;;;;;473098;250;1159;-42
2022/05/17 08:03:11;;;;;;;;;;;21.60;52.50;;;;;;472708;250;1198;-39
2022/05/17 08:05:12;;;;;;;;;;;21.60;52.60;;;;;;473157;250;1149;-39
2022/05/17 08:07:13;;;;;;;;;;;21.60;52.50;;;;;;473076;250;1125;-39
2022/05/17 08:09:15;;;;;;;;;;;21.60;52.50;;;;;;472756;250;1117;-39
2022/05/17 08:11:17;;;;;;;;;;;21.60;52.60;;;;;;472564;250;1190;-39
2022/05/17 08:13:18;;;;;;;;;;;21.60;52.60;;;;;;472833;252;2045;-39
2022/05/17 08:15:19;;;;;;;;;;;21.60;52.60;;;;;;473366;250;1033;-39
2022/05/17 08:17:21;;;;;;;;;;;21.60;52.50;;;;;;472787;250;2209;-39
2022/05/17 08:19:22;;;;;;;;;;;21.60;52.60;;;;;;472874;252;1875;-39
2022/05/17 08:21:23;;;;;;;;;;;21.60;52.60;;;;;;472805;250;1119;-39
2022/05/17 08:23:24;;;;;;;;;;;21.60;52.70;;;;;;472956;250;1143;-39
2022/05/17 08:27:45;;;;;;;;;;;21.60;52.70;;;;;;473280;251;1140;-38
2022/05/17 08:29:46;;;;;;;;;;;21.60;52.60;;;;;;472931;250;1098;-42
2022/05/17 08:33:14;;;;;;;;;;;21.60;52.70;;;;;;473322;250;1173;-41
2022/05/17 08:33:49;;;;;;;;;;;21.60;52.70;;;;;;471616;252;1923;-41
2022/05/17 08:35:50;;;;;;;;;;;21.60;52.70;;;;;;473295;250;1118;-41
2022/05/17 08:37:51;;;;;;;;;;;21.60;52.70;;;;;;473349;250;2189;-41
2022/05/17 08:39:52;;;;;;;;;;;21.60;52.70;;;;;;472684;250;1139;-41
2022/05/17 08:41:54;;;;;;;;;;;21.60;52.70;;;;;;472859;250;1138;-41
2022/05/17 08:43:55;;;;;;;;;;;21.50;52.70;;;;;;472748;250;1098;-42
2022/05/17 08:45:56;;;;;;;;;;;21.60;52.70;;;;;;472937;250;1110;-41
2022/05/17 08:47:58;;;;;;;;;;;21.60;52.70;;;;;;473267;250;1053;-41
2022/05/17 08:49:59;;;;;;;;;;;21.60;52.70;;;;;;473379;250;987;-41
2022/05/17 08:52:00;;;;;;;;;;;21.60;52.70;;;;;;473247;250;1309;-42
2022/05/17 08:54:02;;;;;;;;;;;21.60;52.70;;;;;;472792;250;1358;-41
2022/05/17 08:56:03;;;;;;;;;;;21.60;52.70;;;;;;473075;250;1151;-41
2022/05/17 08:58:04;;;;;;;;;;;21.60;52.70;;;;;;473292;250;2189;-41
2022/05/17 09:00:06;;;;;;;;;;;21.60;52.80;;;;;;473019;250;964;-41
2022/05/17 09:02:07;;;;;;;;;;;21.60;52.70;;;;;;472839;250;1100;-41
2022/05/17 09:04:08;;;;;;;;;;;21.60;52.70;;;;;;472879;250;1220;-42
2022/05/17 09:06:09;;;;;;;;;;;21.60;52.70;;;;;;473243;250;1334;-41
2022/05/17 09:08:11;;;;;;;;;;;21.70;52.70;;;;;;473245;250;1118;-42
2022/05/17 09:10:12;;;;;;;;;;;21.70;52.70;;;;;;472788;250;1107;-41
2022/05/17 09:12:13;;;;;;;;;;;21.60;52.70;;;;;;473155;250;1172;-41
2022/05/17 09:14:15;;;;;;;;;;;21.70;52.80;;;;;;472687;250;1175;-42
2022/05/17 09:16:16;;;;;;;;;;;21.60;52.70;;;;;;472514;250;1343;-41
2022/05/17 09:18:17;;;;;;;;;;;21.60;52.60;;;;;;473370;250;2205;-41
2022/05/17 09:20:19;;;;;;;;;;;21.70;52.70;;;;;;472650;250;1258;-41
2022/05/17 09:22:20;;;;;;;;;;;21.60;52.70;;;;;;472793;250;2007;-41
2022/05/17 09:24:21;;;;;;;;;;;21.60;52.80;;;;;;473231;250;1320;-41
2022/05/17 09:26:23;;;;;;;;;;;21.70;52.80;;;;;;472940;250;1242;-41
2022/05/17 09:28:24;;;;;;;;;;;21.60;52.80;;;;;;473030;250;1121;-41
2022/05/17 09:30:25;;;;;;;;;;;21.70;52.70;;;;;;473160;250;1066;-39
2022/05/17 09:32:27;;;;;;;;;;;21.70;52.70;;;;;;473115;250;1128;-39
2022/05/17 09:34:28;;;;;;;;;;;21.70;52.60;;;;;;472788;250;1192;-39
2022/05/17 09:36:29;;;;;;;;;;;21.70;52.70;;;;;;472264;250;1335;-39
2022/05/17 09:38:30;;;;;;;;;;;21.70;52.60;;;;;;472336;250;2205;-39
2022/05/17 09:40:32;;;;;;;;;;;21.70;52.70;;;;;;472137;250;1195;-39
2022/05/17 09:42:33;;;;;;;;;;;21.70;52.60;;;;;;472096;250;1209;-39
2022/05/17 09:44:35;;;;;;;;;;;21.70;52.70;;;;;;472343;250;1237;-39
2022/05/17 09:46:36;;;;;;;;;;;21.70;52.70;;;;;;472355;250;1234;-39
2022/05/17 09:52:32;;;;;;;;;;;21.70;52.60;;;;;;472367;250;1354;-39
2022/05/17 09:52:58;;;;;;;;;;;21.70;52.50;;;;;;472426;251;1699;-39
2022/05/17 09:55:00;;;;;;;;;;;21.60;52.60;;;;;;472384;250;1201;-39
2022/05/17 09:57:01;;;;;;;;;;;21.70;52.70;;;;;;472499;250;2227;-39
2022/05/17 09:59:02;;;;;;;;;;;21.70;52.50;;;;;;472526;250;2126;-39
2022/05/17 10:01:03;;;;;;;;;;;21.70;52.50;;;;;;472474;250;1268;-39
2022/05/17 10:03:05;;;;;;;;;;;21.70;52.50;;;;;;472485;250;1424;-39
2022/05/17 10:05:06;;;;;;;;;;;21.70;52.50;;;;;;472754;250;1266;-39
2022/05/17 10:07:08;;;;;;;;;;;21.70;52.40;;;;;;473174;250;1875;-39
2022/05/17 10:09:09;;;;;;;;;;;21.70;52.50;;;;;;473335;250;1080;-39
2022/05/17 10:11:10;;;;;;;;;;;21.70;52.50;;;;;;472947;250;1058;-39
2022/05/17 10:13:12;;;;;;;;;;;21.70;52.50;;;;;;472747;250;1412;-39
2022/05/17 10:15:13;;;;;;;;;;;21.70;52.50;;;;;;472648;250;1111;-39
2022/05/17 10:17:14;;;;;;;;;;;21.70;52.50;;;;;;472821;250;2142;-41
2022/05/17 10:19:17;;;;;;;;;;;21.70;52.50;;;;;;472823;250;1263;-42
2022/05/17 10:21:17;;;;;;;;;;;21.70;52.40;;;;;;472397;251;2001;-41
2022/05/17 10:23:18;;;;;;;;;;;21.80;52.40;;;;;;472519;250;1267;-41
2022/05/17 10:25:20;;;;;;;;;;;21.70;52.40;;;;;;472840;250;1276;-41
2022/05/17 10:27:21;;;;;;;;;;;21.80;52.40;;;;;;472000;250;1239;-42
2022/05/17 10:29:22;;;;;;;;;;;21.80;52.40;;;;;;472944;250;1240;-41
2022/05/17 10:31:24;;;;;;;;;;;21.80;52.50;;;;;;472546;250;1270;-41
2022/05/17 10:33:26;;;;;;;;;;;21.80;52.40;;;;;;472955;250;1313;-41
2022/05/17 10:35:26;;;;;;;;;;;21.70;52.40;;;;;;472853;250;2220;-41
2022/05/17 10:37:28;;;;;;;;;;;21.70;52.40;;;;;;473320;250;2197;-42
2022/05/17 10:39:29;;;;;;;;;;;21.70;52.30;;;;;;473289;250;1089;-41
2022/05/17 10:41:30;;;;;;;;;;;21.60;52.50;;;;;;473015;250;1085;-41
2022/05/17 10:43:32;;;;;;;;;;;21.70;52.60;;;;;;473133;251;904;-42
2022/05/17 10:45:33;;;;;;;;;;;21.60;52.60;;;;;;472435;250;1120;-41
2022/05/17 10:47:34;;;;;;;;;;;21.60;52.60;;;;;;472847;250;1211;-41
2022/05/17 10:49:36;;;;;;;;;;;21.60;52.60;;;;;;472713;250;1304;-41
2022/05/17 10:51:38;;;;;;;;;;;21.60;52.60;;;;;;472411;250;1366;-41
2022/05/17 10:53:39;;;;;;;;;;;21.60;52.60;;;;;;472826;252;2165;-41
2022/05/17 10:55:40;;;;;;;;;;;21.70;52.60;;;;;;472611;250;878;-41
2022/05/17 10:57:41;;;;;;;;;;;21.70;52.50;;;;;;472935;250;2193;-41
2022/05/17 10:59:43;;;;;;;;;;;21.70;52.40;;;;;;472766;250;883;-41
2022/05/17 11:01:44;;;;;;;;;;;21.70;52.50;;;;;;472727;250;1339;-41
2022/05/17 11:03:45;;;;;;;;;;;21.70;52.50;;;;;;473209;250;1298;-41
2022/05/17 11:05:47;;;;;;;;;;;21.70;52.50;;;;;;472400;250;1257;-39
2022/05/17 11:07:48;;;;;;;;;;;21.70;52.30;;;;;;472637;250;1167;-39
2022/05/17 11:09:49;;;;;;;;;;;21.70;52.40;;;;;;472490;250;1071;-39
2022/05/17 11:11:50;;;;;;;;;;;21.80;52.30;;;;;;472424;250;1159;-39
2022/05/17 11:13:52;;;;;;;;;;;21.70;52.30;;;;;;472844;250;1065;-39
2022/05/17 11:15:53;;;;;;;;;;;21.70;52.30;;;;;;472541;250;2213;-39
2022/05/17 11:17:55;;;;;;;;;;;21.80;52.40;;;;;;473039;250;2201;-39
2022/05/17 11:19:56;;;;;;;;;;;21.80;52.30;;;;;;473145;250;2204;-39
2022/05/17 11:21:57;;;;;;;;;;;21.80;52.30;;;;;;472663;250;1211;-41
2022/05/17 11:24:00;;;;;;;;;;;21.80;52.30;;;;;;472835;250;1075;-41
2022/05/17 11:26:00;;;;;;;;;;;21.80;52.40;;;;;;472802;251;2096;-42
2022/05/17 11:28:01;;;;;;;;;;;21.70;52.40;;;;;;472522;250;1191;-41
2022/05/17 11:30:02;;;;;;;;;;;21.80;52.40;;;;;;472843;250;1163;-41
2022/05/17 11:32:05;;;;;;;;;;;21.80;52.20;;;;;;473166;250;1434;-41
2022/05/17 11:34:05;;;;;;;;;;;21.80;52.20;;;;;;472563;252;1349;-41
2022/05/17 11:36:06;;;;;;;;;;;21.80;52.30;;;;;;472781;250;1261;-42
2022/05/17 11:38:07;;;;;;;;;;;21.80;52.40;;;;;;473242;250;2196;-41
2022/05/17 11:40:09;;;;;;;;;;;21.80;52.30;;;;;;472789;250;1085;-41
2022/05/17 11:42:10;;;;;;;;;;;21.80;52.20;;;;;;473146;250;1116;-41
2022/05/17 11:44:11;;;;;;;;;;;21.80;52.30;;;;;;473242;252;1105;-41
2022/05/17 11:46:13;;;;;;;;;;;21.80;52.30;;;;;;473060;250;1069;-41
2022/05/17 11:48:14;;;;;;;;;;;21.80;52.30;;;;;;473186;250;1042;-42
2022/05/17 11:50:16;;;;;;;;;;;21.80;52.20;;;;;;473150;250;1225;-41
2022/05/17 11:52:17;;;;;;;;;;;21.80;52.40;;;;;;473198;250;1406;-41
2022/05/17 11:54:18;;;;;;;;;;;21.80;52.30;;;;;;472693;250;1236;-41
2022/05/17 11:56:20;;;;;;;;;;;21.80;52.40;;;;;;473211;250;1102;-41
2022/05/17 11:58:21;;;;;;;;;;;21.80;52.30;;;;;;473251;250;2459;-41
2022/05/17 12:00:22;;;;;;;;;;;21.80;52.30;;;;;;472743;250;1199;-41
2022/05/17 12:02:23;;;;;;;;;;;21.80;52.30;;;;;;473149;250;1120;-42
2022/05/17 12:04:26;;;;;;;;;;;21.80;52.30;;;;;;472886;252;1545;-41
2022/05/17 12:06:26;;;;;;;;;;;21.80;52.20;;;;;;472865;252;2193;-41
2022/05/17 12:08:27;;;;;;;;;;;21.80;52.20;;;;;;473383;250;1093;-41